MMMX/MEX METAR and TAF weather

Enter ICAO airport designator
Station Type Date Time Source
MMMX METAR 2018/12/15 20:45 UTC NOAA

MMMX 152045Z 09003KT 3SM HZ FEW250 18/05 A3030 NOSIG RMK SLP141 57023 919 8/002


Station Type Date Time Source
MMMX Decoded METAR 2018/12/15 20:45 UTC NOAA

Mexico City / Licenci, Mexico (MMMX) 19-26N 099-06W
Dec 15, 2018 - 03:45 PM EST / 2018.12.15 2045 UTC
Wind: from the E (090 degrees) at 3 MPH (3 KT):0
Visibility: 3 mile(s):0
Sky conditions: mostly clear
Weather: haze
Temperature: 64 F (18 C)
Dew Point: 41 F (5 C)
Relative Humidity: 42%
Pressure (altimeter): 30.3 in. Hg (1026 hPa)
Pressure tendency: 0.07 inches (2.3 hPa) lower than three hours ago
ob: MMMX 152045Z 09003KT 3SM HZ FEW250 18/05 A3030 NOSIG RMK SLP141 57023 919 8/002
cycle: 21

Station Type Date Time Source
MMMX TAF 2018/12/15 18:11 UTC NOAA

TAF MMMX 151604Z 1518/1624 12005KT 4SM HZ SCT020 BKN250 TX20/1521Z TN04/1612Z
BECMG 1520/1521 07010KT
FM160400 00000KT 5SM HZ SCT008 BKN250
TEMPO 1611/1615 1SM BR VV005
FM161500 08005KT 4SM HZ SCT015 BKN250
BECMG 1620/1621 05010KT


Example: see airport list